createdAt,value
2022-08-17T20:13:32.839Z,20.60
2022-08-17T20:16:03.527Z,20.50
2022-08-17T20:18:47.823Z,20.60
2022-08-17T20:21:20.852Z,20.60
2022-08-17T20:23:55.217Z,20.70
2022-08-17T20:26:27.944Z,20.70
2022-08-17T20:29:37.232Z,20.80
2022-08-17T20:32:23.172Z,20.70
2022-08-17T20:35:04.420Z,20.70
2022-08-17T20:37:45.089Z,20.70
2022-08-17T20:40:23.471Z,20.70
2022-08-17T20:42:52.175Z,20.60
2022-08-17T20:45:58.027Z,20.60
2022-08-17T20:48:38.684Z,20.60
2022-08-17T20:51:23.960Z,20.50
2022-08-17T20:54:05.798Z,20.40
2022-08-17T20:56:57.923Z,20.40
2022-08-17T20:59:56.664Z,20.50
2022-08-17T21:02:27.967Z,20.50
2022-08-17T21:05:07.204Z,20.50
2022-08-17T21:07:55.981Z,20.40
2022-08-17T21:10:38.487Z,20.40
2022-08-17T21:13:55.262Z,20.40
2022-08-17T21:16:44.049Z,20.40
2022-08-17T21:19:44.437Z,20.40
2022-08-17T21:22:39.052Z,20.40
2022-08-17T21:25:21.333Z,20.50
2022-08-17T21:28:00.630Z,20.60
2022-08-17T21:30:54.019Z,20.60
2022-08-17T21:33:28.014Z,20.60
2022-08-17T21:36:26.807Z,20.60
2022-08-17T21:39:06.705Z,20.60
2022-08-17T21:41:46.568Z,20.60
2022-08-17T21:44:30.553Z,20.70
2022-08-17T21:47:16.791Z,20.70
2022-08-17T21:49:45.506Z,20.80
2022-08-17T21:52:17.795Z,20.70
2022-08-17T21:54:55.017Z,20.80
2022-08-17T21:57:27.760Z,20.80
2022-08-17T22:00:00.090Z,20.80
2022-08-17T22:02:33.170Z,20.80
2022-08-17T22:05:03.503Z,20.80
2022-08-17T22:07:41.108Z,20.80
2022-08-17T22:10:30.855Z,20.70
2022-08-17T22:13:16.752Z,20.70
2022-08-17T22:15:48.651Z,20.60
2022-08-17T22:18:23.283Z,20.60
2022-08-17T22:20:54.339Z,20.50
2022-08-17T22:23:43.658Z,20.40
2022-08-17T22:26:16.679Z,20.30
2022-08-17T22:28:49.187Z,20.20
2022-08-17T22:31:19.470Z,20.10
2022-08-17T22:33:50.849Z,20.00
2022-08-17T22:36:29.102Z,20.10
2022-08-17T22:38:59.566Z,20.00
2022-08-17T22:41:43.077Z,20.00
2022-08-17T22:44:28.106Z,19.90
2022-08-17T22:47:11.143Z,19.80
2022-08-17T22:49:54.092Z,19.70
2022-08-17T22:52:56.706Z,19.60
2022-08-17T22:55:43.569Z,19.70
2022-08-17T22:58:38.845Z,19.60
2022-08-17T23:01:29.754Z,19.40
2022-08-17T23:04:01.498Z,19.40
2022-08-17T23:06:34.069Z,19.30
2022-08-17T23:09:04.431Z,19.30
2022-08-17T23:11:48.827Z,19.20
2022-08-17T23:14:22.696Z,19.20
2022-08-17T23:16:51.520Z,19.20
2022-08-17T23:19:25.584Z,19.10
2022-08-17T23:21:55.659Z,19.20
2022-08-17T23:24:27.371Z,19.20
2022-08-17T23:26:57.605Z,19.10
2022-08-17T23:29:29.703Z,19.10
2022-08-17T23:32:00.325Z,19.00
2022-08-17T23:34:30.185Z,19.00
2022-08-17T23:36:59.762Z,18.90
2022-08-17T23:39:28.499Z,18.90
2022-08-17T23:41:58.656Z,18.80
2022-08-17T23:44:29.295Z,18.80
2022-08-17T23:46:58.537Z,18.80
2022-08-17T23:49:27.576Z,18.80
2022-08-17T23:51:56.829Z,18.80
2022-08-17T23:54:30.536Z,18.80
2022-08-17T23:56:59.783Z,18.80
2022-08-17T23:59:30.223Z,18.70
